createdAt,value
2019-05-02T00:00:55.187Z,97.60
2019-05-02T00:01:55.161Z,98.12
2019-05-02T00:02:55.137Z,98.08
2019-05-02T00:03:55.114Z,97.31
2019-05-02T00:04:55.879Z,97.36
2019-05-02T00:05:55.062Z,97.55
2019-05-02T00:06:55.038Z,97.27
2019-05-02T00:07:58.499Z,97.36
2019-05-02T00:08:54.989Z,96.98
2019-05-02T00:09:54.964Z,97.36
2019-05-02T00:10:54.939Z,97.36
2019-05-02T00:11:58.922Z,97.36
2019-05-02T00:12:54.889Z,97.17
2019-05-02T00:13:54.864Z,96.69
2019-05-02T00:14:56.590Z,96.50
2019-05-02T00:15:54.814Z,96.79
2019-05-02T00:16:54.790Z,96.50
2019-05-02T00:17:56.887Z,96.60
2019-05-02T00:18:54.740Z,96.60
2019-05-02T00:19:54.715Z,96.98
2019-05-02T00:20:57.110Z,97.55
2019-05-02T00:21:54.664Z,97.36
2019-05-02T00:22:54.640Z,97.36
2019-05-02T00:23:58.967Z,97.45
2019-05-02T00:24:54.591Z,97.27
2019-05-02T00:25:54.565Z,97.55
2019-05-02T00:26:56.079Z,96.60
2019-05-02T00:27:54.515Z,96.89
2019-05-02T00:28:54.491Z,96.98
2019-05-02T00:29:58.845Z,96.69
2019-05-02T00:30:54.439Z,96.41
2019-05-02T00:31:54.414Z,96.41
2019-05-02T00:32:58.306Z,96.79
2019-05-02T00:33:54.364Z,96.79
2019-05-02T00:34:54.341Z,96.65
2019-05-02T00:35:54.314Z,96.84
2019-05-02T00:36:54.289Z,96.55
2019-05-02T00:37:57.476Z,96.17
2019-05-02T00:38:54.238Z,96.31
2019-05-02T00:39:54.213Z,96.65
2019-05-02T00:40:57.330Z,97.31
2019-05-02T00:41:54.162Z,96.26
2019-05-02T00:42:58.271Z,96.84
2019-05-02T00:43:54.112Z,95.70
2019-05-02T00:44:54.088Z,96.93
2019-05-02T00:45:55.003Z,96.36
2019-05-02T00:46:54.035Z,96.69
2019-05-02T00:47:54.013Z,96.55
2019-05-02T00:48:59.076Z,96.74
2019-05-02T00:49:53.959Z,96.98
2019-05-02T00:50:53.934Z,97.36
2019-05-02T00:51:56.637Z,97.27
2019-05-02T00:52:53.884Z,96.50
2019-05-02T00:53:53.859Z,96.60
2019-05-02T00:54:54.976Z,96.74
2019-05-02T00:55:53.808Z,97.31
2019-05-02T00:56:53.782Z,97.50
2019-05-02T00:57:55.639Z,96.45
2019-05-02T00:58:53.729Z,96.17
2019-05-02T00:59:53.705Z,96.84
2019-05-02T01:00:54.851Z,95.98
2019-05-02T01:01:53.653Z,95.70
2019-05-02T01:02:53.629Z,95.22
2019-05-02T01:03:53.875Z,95.89
2019-05-02T01:04:53.576Z,95.89
2019-05-02T01:05:53.552Z,95.89
2019-05-02T01:06:53.526Z,95.51
2019-05-02T01:07:55.960Z,95.32
2019-05-02T01:08:53.475Z,95.79
2019-05-02T01:09:53.449Z,95.51
2019-05-02T01:10:56.966Z,95.22
2019-05-02T01:11:53.398Z,95.75
2019-05-02T01:12:53.376Z,95.32
2019-05-02T01:13:55.666Z,95.89
2019-05-02T01:14:54.075Z,96.36
2019-05-02T01:15:53.296Z,96.36
2019-05-02T01:16:54.309Z,96.45
2019-05-02T01:17:53.244Z,96.65
2019-05-02T01:18:53.219Z,95.89
2019-05-02T01:19:53.194Z,95.60
2019-05-02T01:20:53.168Z,95.60
2019-05-02T01:21:53.144Z,95.89
2019-05-02T01:22:53.673Z,95.89
2019-05-02T01:23:53.091Z,95.89
2019-05-02T01:24:53.066Z,95.89
2019-05-02T01:25:54.554Z,96.08
2019-05-02T01:26:53.014Z,95.98
2019-05-02T01:27:52.987Z,96.08
2019-05-02T01:28:54.287Z,95.89
2019-05-02T01:29:52.936Z,95.51
2019-05-02T01:30:53.661Z,95.70
2019-05-02T01:31:54.741Z,96.26
2019-05-02T01:32:52.859Z,95.51
2019-05-02T01:33:52.833Z,95.89
2019-05-02T01:34:54.564Z,96.17
2019-05-02T01:35:52.782Z,96.36
2019-05-02T01:36:52.756Z,96.36
2019-05-02T01:37:54.918Z,96.74
2019-05-02T01:38:52.704Z,97.12
2019-05-02T01:39:52.680Z,96.55
2019-05-02T01:40:54.519Z,96.74
2019-05-02T01:41:52.626Z,96.36
2019-05-02T01:42:52.601Z,97.31
2019-05-02T01:43:54.962Z,96.55
2019-05-02T01:44:52.550Z,96.84
2019-05-02T01:45:52.524Z,96.26
2019-05-02T01:46:53.958Z,97.22
2019-05-02T01:47:52.473Z,97.50
2019-05-02T01:48:52.448Z,96.93
2019-05-02T01:49:57.156Z,97.22
2019-05-02T01:50:52.395Z,97.36
2019-05-02T01:51:52.370Z,96.79
2019-05-02T01:52:53.774Z,96.88
2019-05-02T01:53:52.316Z,96.31
2019-05-02T01:54:52.293Z,96.45
2019-05-02T01:55:57.588Z,96.26
2019-05-02T01:56:52.241Z,96.93
2019-05-02T01:57:52.216Z,96.36
2019-05-02T01:58:53.020Z,96.65
2019-05-02T01:59:52.163Z,96.74
2019-05-02T02:00:52.139Z,96.55
2019-05-02T02:01:53.317Z,96.65
2019-05-02T02:02:52.086Z,97.22
2019-05-02T02:03:52.060Z,97.50
2019-05-02T02:04:56.476Z,97.88
2019-05-02T02:05:52.008Z,97.31
2019-05-02T02:06:51.982Z,97.41
2019-05-02T02:07:55.557Z,97.31
2019-05-02T02:08:51.931Z,97.31
2019-05-02T02:09:51.907Z,96.74
2019-05-02T02:10:56.134Z,96.41
2019-05-02T02:11:51.854Z,97.17
2019-05-02T02:13:03.551Z,96.31
2019-05-02T02:13:51.802Z,97.17
2019-05-02T02:14:53.639Z,96.31
2019-05-02T02:15:51.751Z,95.84
2019-05-02T02:16:51.725Z,96.22
2019-05-02T02:17:52.649Z,96.41
2019-05-02T02:18:51.676Z,95.94
2019-05-02T02:19:51.646Z,95.94
2019-05-02T02:20:51.621Z,96.93
2019-05-02T02:21:51.595Z,96.41
2019-05-02T02:22:51.569Z,96.98
2019-05-02T02:23:51.545Z,97.07
2019-05-02T02:24:51.519Z,96.22
2019-05-02T02:25:51.491Z,96.50
2019-05-02T02:26:51.465Z,97.27
2019-05-02T02:27:54.878Z,97.17
2019-05-02T02:28:51.414Z,96.22
2019-05-02T02:29:51.387Z,96.12
2019-05-02T02:30:51.362Z,96.98
2019-05-02T02:31:51.335Z,97.83
2019-05-02T02:32:51.311Z,97.07
2019-05-02T02:33:51.283Z,95.84
2019-05-02T02:34:51.263Z,95.65
2019-05-02T02:35:52.212Z,95.65
2019-05-02T02:36:51.207Z,96.22
2019-05-02T02:37:52.906Z,96.69
2019-05-02T02:38:51.915Z,96.41
2019-05-02T02:39:54.271Z,97.17
2019-05-02T02:40:51.105Z,96.69
2019-05-02T02:41:52.100Z,96.69
2019-05-02T02:42:51.051Z,97.27
2019-05-02T02:43:54.608Z,96.50
2019-05-02T02:44:50.999Z,96.60
2019-05-02T02:45:51.879Z,96.50
2019-05-02T02:46:50.946Z,96.12
2019-05-02T02:47:53.057Z,96.03
2019-05-02T02:48:50.895Z,96.41
2019-05-02T02:49:56.075Z,97.27
2019-05-02T02:50:50.843Z,96.60
2019-05-02T02:51:50.817Z,95.84
2019-05-02T02:52:50.791Z,95.75
2019-05-02T02:54:03.095Z,97.74
2019-05-02T02:54:50.737Z,96.31
2019-05-02T02:56:01.181Z,96.03
2019-05-02T02:56:50.686Z,96.41
2019-05-02T02:57:50.658Z,97.17
2019-05-02T02:58:50.634Z,96.69
2019-05-02T02:59:50.607Z,96.50
2019-05-02T03:00:52.083Z,96.03
2019-05-02T03:01:50.556Z,96.50
2019-05-02T03:02:50.616Z,96.88
2019-05-02T03:03:50.503Z,96.69
2019-05-02T03:04:50.479Z,96.22
2019-05-02T03:05:50.454Z,96.03
2019-05-02T03:06:51.175Z,96.41
2019-05-02T03:07:50.397Z,96.79
2019-05-02T03:08:50.373Z,97.27
2019-05-02T03:09:50.344Z,96.12
2019-05-02T03:10:50.318Z,95.27
2019-05-02T03:11:50.297Z,96.31
2019-05-02T03:12:50.267Z,97.92
2019-05-02T03:13:53.467Z,97.74
2019-05-02T03:14:50.218Z,96.22
2019-05-02T03:15:50.189Z,96.22
2019-05-02T03:16:50.160Z,95.46
2019-05-02T03:17:50.133Z,95.94
2019-05-02T03:18:50.115Z,95.46
2019-05-02T03:19:54.477Z,96.69
2019-05-02T03:20:50.056Z,96.12
2019-05-02T03:21:54.355Z,96.79
2019-05-02T03:22:50.002Z,96.12
2019-05-02T03:24:01.367Z,95.79
2019-05-02T03:24:49.950Z,96.22
2019-05-02T03:25:51.396Z,96.55
2019-05-02T03:26:55.434Z,96.45
2019-05-02T03:27:49.871Z,95.51
2019-05-02T03:28:57.644Z,95.27
2019-05-02T03:29:49.816Z,95.65
2019-05-02T03:30:49.797Z,96.17
2019-05-02T03:31:49.789Z,96.08
2019-05-02T03:33:02.673Z,95.79
2019-05-02T03:33:56.684Z,95.79
2019-05-02T03:34:53.757Z,95.22
2019-05-02T03:35:49.716Z,95.98
2019-05-02T03:36:49.633Z,95.70
2019-05-02T03:37:51.456Z,95.98
2019-05-02T03:38:49.581Z,96.26
2019-05-02T03:39:57.267Z,96.36
2019-05-02T03:40:49.528Z,95.70
2019-05-02T03:41:55.417Z,95.89
2019-05-02T03:42:49.477Z,96.26
2019-05-02T03:43:49.465Z,95.41
2019-05-02T03:44:56.912Z,95.51
2019-05-02T03:45:49.394Z,95.31
2019-05-02T03:46:54.192Z,95.70
2019-05-02T03:47:49.343Z,95.79
2019-05-02T03:48:49.317Z,96.08
2019-05-02T03:49:51.910Z,95.70
2019-05-02T03:50:49.262Z,95.41
2019-05-02T03:51:49.240Z,95.46
2019-05-02T03:52:49.211Z,95.84
2019-05-02T03:53:49.183Z,95.94
2019-05-02T03:54:52.154Z,95.79
2019-05-02T03:55:49.132Z,95.84
2019-05-02T03:56:51.112Z,96.26
2019-05-02T03:57:49.078Z,96.36
2019-05-02T03:58:56.342Z,95.70
2019-05-02T03:59:49.789Z,95.36
2019-05-02T04:01:00.534Z,95.27
2019-05-02T04:01:48.974Z,95.51
2019-05-02T04:02:59.066Z,96.45
2019-05-02T04:03:48.920Z,96.17
2019-05-02T04:04:54.497Z,96.08
2019-05-02T04:05:48.865Z,95.70
2019-05-02T04:06:54.966Z,95.41
2019-05-02T04:07:48.814Z,95.41
2019-05-02T04:08:58.689Z,95.75
2019-05-02T04:09:48.760Z,95.75
2019-05-02T04:10:52.529Z,95.46
2019-05-02T04:11:48.707Z,95.75
2019-05-02T04:12:53.122Z,96.22
2019-05-02T04:13:48.653Z,96.31
2019-05-02T04:14:55.142Z,96.12
2019-05-02T04:15:48.601Z,96.12
2019-05-02T04:16:54.662Z,95.84
2019-05-02T04:17:48.548Z,96.50
2019-05-02T04:18:55.811Z,96.69
2019-05-02T04:19:48.495Z,96.69
2019-05-02T04:20:49.730Z,95.17
2019-05-02T04:21:52.655Z,95.17
2019-05-02T04:22:49.108Z,94.89
2019-05-02T04:23:48.398Z,95.75
2019-05-02T04:24:54.392Z,94.89
2019-05-02T04:25:48.341Z,94.98
2019-05-02T04:26:53.790Z,95.08
2019-05-02T04:27:48.285Z,95.46
2019-05-02T04:28:51.715Z,95.08
2019-05-02T04:29:48.243Z,95.27
2019-05-02T04:30:51.138Z,95.08
2019-05-02T04:31:48.179Z,95.46
2019-05-02T04:32:49.795Z,95.46
2019-05-02T04:33:48.126Z,95.65
2019-05-02T04:34:54.956Z,95.08
2019-05-02T04:35:48.074Z,95.36
2019-05-02T04:36:59.891Z,95.55
2019-05-02T04:37:48.020Z,95.36
2019-05-02T04:38:52.163Z,95.55
2019-05-02T04:39:49.109Z,94.32
2019-05-02T04:40:49.571Z,94.60
2019-05-02T04:41:48.605Z,93.94
2019-05-02T04:42:53.451Z,94.70
2019-05-02T04:43:57.311Z,94.23
2019-05-02T04:45:09.451Z,94.51
2019-05-02T04:45:56.190Z,94.03
2019-05-02T04:46:48.890Z,94.32
2019-05-02T04:47:57.469Z,94.23
2019-05-02T04:48:49.717Z,94.60
2019-05-02T04:49:51.567Z,94.51
2019-05-02T04:50:48.314Z,94.42
2019-05-02T04:51:59.847Z,94.03
2019-05-02T04:52:53.637Z,94.13
2019-05-02T04:53:49.763Z,94.79
2019-05-02T04:54:48.837Z,94.03
2019-05-02T04:55:52.476Z,94.51
2019-05-02T04:56:53.114Z,94.23
2019-05-02T04:57:50.846Z,94.08
2019-05-02T04:58:49.316Z,94.08
2019-05-02T04:59:50.055Z,93.99
2019-05-02T05:00:53.615Z,94.18
2019-05-02T05:01:54.663Z,93.99
2019-05-02T05:02:48.460Z,94.08
2019-05-02T05:03:51.257Z,93.70
2019-05-02T05:04:49.452Z,93.99
2019-05-02T05:05:48.245Z,93.99
2019-05-02T05:06:55.945Z,93.23
2019-05-02T05:07:49.444Z,93.89
2019-05-02T05:08:48.271Z,93.99
2019-05-02T05:09:56.994Z,94.08
2019-05-02T05:10:47.966Z,93.70
2019-05-02T05:11:48.198Z,93.70
2019-05-02T05:12:48.001Z,93.79
2019-05-02T05:13:52.450Z,93.70
2019-05-02T05:14:47.478Z,94.27
2019-05-02T05:15:51.261Z,94.18
2019-05-02T05:16:51.661Z,94.27
2019-05-02T05:17:47.887Z,94.37
2019-05-02T05:18:49.501Z,93.79
2019-05-02T05:19:48.721Z,94.22
2019-05-02T05:20:53.002Z,94.22
2019-05-02T05:21:47.684Z,94.51
2019-05-02T05:22:47.906Z,93.65
2019-05-02T05:23:47.214Z,94.42
2019-05-02T05:24:47.699Z,94.32
2019-05-02T05:25:47.880Z,94.32
2019-05-02T05:26:47.673Z,95.75
2019-05-02T05:27:47.910Z,95.60
2019-05-02T05:28:47.678Z,95.22
2019-05-02T05:29:48.575Z,95.03
2019-05-02T05:30:51.889Z,95.79
2019-05-02T05:31:48.263Z,96.65
2019-05-02T05:32:47.881Z,96.26
2019-05-02T05:33:47.861Z,97.13
2019-05-02T05:34:47.788Z,97.41
2019-05-02T05:35:48.878Z,96.46
2019-05-02T05:36:48.159Z,96.65
2019-05-02T05:37:49.136Z,96.65
2019-05-02T05:38:47.836Z,96.79
2019-05-02T05:39:48.748Z,96.60
2019-05-02T05:40:47.900Z,96.55
2019-05-02T05:41:50.880Z,96.55
2019-05-02T05:42:48.111Z,96.65
2019-05-02T05:43:49.991Z,96.31
2019-05-02T05:44:48.372Z,96.70
2019-05-02T05:45:53.319Z,96.60
2019-05-02T05:46:48.913Z,96.70
2019-05-02T05:47:47.911Z,96.89
2019-05-02T05:48:47.637Z,96.60
2019-05-02T05:49:47.765Z,96.51
2019-05-02T05:50:47.796Z,96.51
2019-05-02T05:51:47.714Z,96.41
2019-05-02T05:52:47.287Z,96.70
2019-05-02T05:53:47.860Z,97.17
2019-05-02T05:54:47.402Z,97.46
2019-05-02T05:55:47.335Z,96.79
2019-05-02T05:56:48.017Z,97.17
2019-05-02T05:57:47.597Z,96.98
2019-05-02T05:58:50.513Z,97.27
2019-05-02T05:59:48.014Z,97.36
2019-05-02T06:00:53.611Z,97.65
2019-05-02T06:01:48.355Z,98.03
2019-05-02T06:02:53.895Z,97.70
2019-05-02T06:03:47.413Z,98.18
2019-05-02T06:04:47.727Z,97.79
2019-05-02T06:05:47.637Z,98.18
2019-05-02T06:06:47.856Z,97.79
2019-05-02T06:07:47.401Z,97.79
2019-05-02T06:08:49.160Z,97.99
2019-05-02T06:09:45.676Z,98.55
2019-05-02T06:10:45.672Z,98.60
2019-05-02T06:11:45.626Z,98.79
2019-05-02T06:12:45.603Z,98.89
2019-05-02T06:13:48.944Z,98.41
2019-05-02T06:14:46.497Z,98.70
2019-05-02T06:15:45.989Z,99.18
2019-05-02T06:16:46.787Z,98.22
2019-05-02T06:17:45.479Z,98.03
2019-05-02T06:18:45.455Z,98.22
2019-05-02T06:19:53.468Z,98.60
2019-05-02T06:20:45.407Z,98.41
2019-05-02T06:21:46.723Z,98.51
2019-05-02T06:22:45.357Z,98.27
2019-05-02T06:23:45.334Z,98.70
2019-05-02T06:24:46.205Z,98.79
2019-05-02T06:25:45.285Z,98.13
2019-05-02T06:26:49.757Z,98.65
2019-05-02T06:27:45.235Z,98.75
2019-05-02T06:28:45.211Z,98.65
2019-05-02T06:29:45.187Z,98.65
2019-05-02T06:30:45.164Z,98.56
2019-05-02T06:31:45.140Z,98.46
2019-05-02T06:32:45.115Z,99.41
2019-05-02T06:33:45.090Z,98.56
2019-05-02T06:34:47.561Z,99.70
2019-05-02T06:35:45.042Z,98.94
2019-05-02T06:36:45.018Z,98.75
2019-05-02T06:37:45.244Z,99.32
2019-05-02T06:38:44.970Z,99.41
2019-05-02T06:39:44.949Z,98.65
2019-05-02T06:40:46.611Z,98.65
2019-05-02T06:41:44.897Z,99.70
2019-05-02T06:42:44.873Z,98.75
2019-05-02T06:43:46.947Z,99.22
2019-05-02T06:44:44.826Z,99.13
2019-05-02T06:45:44.802Z,99.37
2019-05-02T06:46:44.778Z,98.90
2019-05-02T06:47:44.753Z,98.51
2019-05-02T06:48:48.254Z,98.80
2019-05-02T06:49:44.705Z,98.80
2019-05-02T06:50:44.682Z,98.51
2019-05-02T06:51:44.657Z,98.32
2019-05-02T06:52:44.634Z,98.61
2019-05-02T06:53:47.067Z,98.42
2019-05-02T06:54:44.585Z,98.56
2019-05-02T06:55:44.561Z,98.47
2019-05-02T06:56:48.004Z,98.47
2019-05-02T06:57:44.515Z,98.75
2019-05-02T06:58:44.489Z,98.47
2019-05-02T06:59:44.466Z,97.89
2019-05-02T07:00:56.466Z,98.61
2019-05-02T07:01:44.419Z,97.89
2019-05-02T07:02:44.395Z,96.98
2019-05-02T07:03:46.333Z,96.70
2019-05-02T07:04:44.353Z,96.80
2019-05-02T07:05:44.325Z,96.98
2019-05-02T07:06:57.182Z,97.08
2019-05-02T07:07:44.279Z,97.37
2019-05-02T07:08:44.261Z,97.08
2019-05-02T07:09:44.235Z,96.32
2019-05-02T07:10:45.146Z,96.22
2019-05-02T07:11:56.673Z,96.32
2019-05-02T07:12:46.192Z,96.32
2019-05-02T07:13:44.137Z,96.37
2019-05-02T07:14:45.786Z,96.08
2019-05-02T07:15:44.090Z,96.42
2019-05-02T07:16:44.067Z,96.46
2019-05-02T07:17:44.047Z,96.51
2019-05-02T07:18:47.473Z,96.51
2019-05-02T07:19:43.997Z,95.94
2019-05-02T07:20:43.974Z,95.94
2019-05-02T07:21:43.951Z,95.56
2019-05-02T07:22:45.566Z,94.60
2019-05-02T07:23:43.907Z,94.51
2019-05-02T07:24:43.884Z,93.65
2019-05-02T07:25:44.215Z,93.65
2019-05-02T07:26:43.836Z,93.50
2019-05-02T07:27:43.814Z,93.93
2019-05-02T07:28:45.561Z,93.50
2019-05-02T07:29:43.769Z,93.98
2019-05-02T07:30:43.747Z,93.79
2019-05-02T07:31:47.741Z,94.07
2019-05-02T07:32:43.700Z,94.07
2019-05-02T07:33:43.677Z,94.17
2019-05-02T07:34:44.269Z,94.36
2019-05-02T07:35:43.632Z,94.17
2019-05-02T07:36:43.609Z,93.40
2019-05-02T07:37:44.098Z,93.07
2019-05-02T07:38:43.564Z,92.30
2019-05-02T07:39:43.541Z,92.11
2019-05-02T07:40:43.519Z,92.49
2019-05-02T07:41:43.496Z,92.54
2019-05-02T07:42:43.474Z,92.06
2019-05-02T07:43:43.452Z,90.44
2019-05-02T07:44:43.429Z,90.91
2019-05-02T07:45:45.309Z,91.39
2019-05-02T07:46:51.660Z,89.95
2019-05-02T07:47:43.364Z,89.95
2019-05-02T07:48:43.700Z,89.86
2019-05-02T07:49:43.319Z,89.58
2019-05-02T07:50:46.498Z,90.91
2019-05-02T07:51:43.276Z,90.15
2019-05-02T07:52:43.253Z,88.95
2019-05-02T07:53:44.595Z,88.76
2019-05-02T07:54:43.209Z,90.10
2019-05-02T07:55:43.187Z,90.72
2019-05-02T07:56:43.166Z,91.39
2019-05-02T07:57:43.143Z,90.44
2019-05-02T07:58:46.924Z,88.81
2019-05-02T07:59:43.101Z,89.34
2019-05-02T08:00:43.078Z,88.62
2019-05-02T08:01:44.916Z,88.43
2019-05-02T08:02:43.034Z,89.29
2019-05-02T08:03:43.012Z,89.09
2019-05-02T08:04:44.138Z,89.00
2019-05-02T08:05:42.968Z,88.81
2019-05-02T08:06:44.687Z,89.33
2019-05-02T08:07:42.925Z,88.76
2019-05-02T08:08:42.904Z,86.84
2019-05-02T08:09:44.087Z,87.08
2019-05-02T08:10:42.860Z,86.04
2019-05-02T08:11:42.838Z,85.94
2019-05-02T08:12:42.818Z,86.22
2019-05-02T08:13:42.795Z,86.61
2019-05-02T08:14:42.774Z,85.94
2019-05-02T08:15:45.569Z,86.90
2019-05-02T08:16:42.730Z,86.90
2019-05-02T08:17:42.708Z,86.90
2019-05-02T08:18:42.688Z,87.32
2019-05-02T08:19:43.295Z,87.41
2019-05-02T08:20:42.644Z,85.50
2019-05-02T08:21:42.622Z,84.97
2019-05-02T08:22:43.987Z,84.88
2019-05-02T08:23:42.579Z,84.11
2019-05-02T08:24:42.558Z,84.58
2019-05-02T08:25:45.383Z,83.34
2019-05-02T08:26:43.265Z,82.19
2019-05-02T08:27:42.495Z,81.08
2019-05-02T08:28:42.480Z,81.90
2019-05-02T08:29:42.451Z,80.94
2019-05-02T08:30:42.433Z,81.71
2019-05-02T08:31:42.408Z,82.62
2019-05-02T08:32:42.388Z,81.18
2019-05-02T08:33:42.366Z,79.80
2019-05-02T08:34:46.272Z,80.66
2019-05-02T08:35:42.325Z,81.08
2019-05-02T08:36:42.306Z,80.66
2019-05-02T08:37:43.077Z,80.76
2019-05-02T08:38:42.261Z,82.52
2019-05-02T08:39:42.241Z,82.04
2019-05-02T08:40:47.591Z,82.08
2019-05-02T08:41:42.199Z,79.59
2019-05-02T08:42:42.178Z,78.34
2019-05-02T08:43:44.935Z,78.05
2019-05-02T08:44:50.723Z,79.30
2019-05-02T08:45:42.116Z,79.11
2019-05-02T08:46:46.218Z,78.05
2019-05-02T08:47:42.081Z,78.05
2019-05-02T08:48:43.755Z,77.00
2019-05-02T08:49:42.575Z,76.52
2019-05-02T08:50:42.012Z,76.52
2019-05-02T08:51:41.992Z,76.81
2019-05-02T08:52:42.764Z,75.95
2019-05-02T08:53:42.701Z,76.23
2019-05-02T08:54:41.930Z,76.42
2019-05-02T08:55:45.336Z,76.90
2019-05-02T08:56:41.891Z,77.90
2019-05-02T08:57:41.869Z,76.46
2019-05-02T08:58:44.866Z,74.31
2019-05-02T08:59:41.827Z,75.37
2019-05-02T09:00:41.808Z,74.98
2019-05-02T09:01:44.694Z,75.27
2019-05-02T09:02:42.193Z,76.14
2019-05-02T09:03:54.847Z,77.86
2019-05-02T09:04:41.728Z,80.40
2019-05-02T09:05:46.098Z,76.65
2019-05-02T09:06:41.686Z,75.95
2019-05-02T09:07:43.014Z,75.81
2019-05-02T09:08:41.646Z,75.95
2019-05-02T09:09:43.878Z,75.95
2019-05-02T09:10:42.079Z,77.58
2019-05-02T09:11:43.776Z,76.14
2019-05-02T09:12:45.336Z,76.46
2019-05-02T09:13:42.190Z,76.65
2019-05-02T09:14:42.590Z,76.46
2019-05-02T09:15:49.739Z,76.56
2019-05-02T09:16:42.738Z,76.04
2019-05-02T09:17:44.624Z,76.42
2019-05-02T09:18:50.653Z,76.81
2019-05-02T09:19:42.950Z,78.34
2019-05-02T09:20:42.359Z,77.58
2019-05-02T09:21:42.898Z,77.09
2019-05-02T09:22:41.889Z,79.05
2019-05-02T09:23:43.898Z,78.57
2019-05-02T09:24:43.059Z,77.90
2019-05-02T09:25:43.017Z,77.90
2019-05-02T09:26:42.587Z,77.04
2019-05-02T09:27:42.060Z,76.84
2019-05-02T09:28:42.253Z,77.67
2019-05-02T09:29:44.420Z,79.21
2019-05-02T09:30:41.905Z,80.68
2019-05-02T09:31:44.185Z,80.68
2019-05-02T09:32:41.920Z,78.05
2019-05-02T09:33:42.378Z,79.24
2019-05-02T09:34:42.401Z,78.96
2019-05-02T09:35:42.164Z,80.20
2019-05-02T09:36:41.854Z,81.40
2019-05-02T09:37:41.987Z,79.24
2019-05-02T09:38:42.492Z,79.19
2019-05-02T09:39:41.521Z,79.19
2019-05-02T09:40:42.594Z,78.90
2019-05-02T09:41:41.920Z,78.61
2019-05-02T09:42:43.149Z,79.76
2019-05-02T09:43:42.621Z,78.42
2019-05-02T09:44:42.560Z,78.42
2019-05-02T09:45:43.223Z,79.38
2019-05-02T09:46:42.744Z,80.34
2019-05-02T09:47:55.382Z,78.94
2019-05-02T09:48:42.729Z,77.26
2019-05-02T09:49:41.735Z,77.23
2019-05-02T09:50:42.192Z,78.70
2019-05-02T09:51:42.327Z,77.75
2019-05-02T09:52:41.676Z,77.11
2019-05-02T09:53:43.011Z,75.96
2019-05-02T09:54:42.457Z,76.34
2019-05-02T09:55:42.023Z,74.96
2019-05-02T09:56:40.680Z,76.21
2019-05-02T09:57:42.628Z,76.40
2019-05-02T09:58:42.029Z,76.73
2019-05-02T09:59:44.896Z,75.25
2019-05-02T10:00:41.852Z,75.29
2019-05-02T10:01:42.169Z,75.77
2019-05-02T10:02:41.886Z,76.59
2019-05-02T10:03:42.301Z,76.40
2019-05-02T10:04:43.491Z,76.17
2019-05-02T10:05:40.508Z,76.50
2019-05-02T10:06:42.377Z,77.04
2019-05-02T10:07:41.902Z,77.71
2019-05-02T10:08:43.532Z,76.79
2019-05-02T10:09:42.332Z,76.88
2019-05-02T10:10:44.278Z,76.64
2019-05-02T10:11:41.800Z,75.67
2019-05-02T10:12:42.595Z,74.90
2019-05-02T10:13:42.350Z,74.33
2019-05-02T10:14:42.124Z,74.33
2019-05-02T10:15:42.129Z,74.27
2019-05-02T10:16:42.495Z,74.94
2019-05-02T10:17:44.684Z,75.81
2019-05-02T10:18:40.264Z,77.44
2019-05-02T10:19:41.185Z,77.25
2019-05-02T10:20:41.953Z,73.79
2019-05-02T10:21:42.095Z,73.69
2019-05-02T10:22:41.835Z,75.90
2019-05-02T10:23:42.606Z,74.85
2019-05-02T10:24:40.151Z,72.64
2019-05-02T10:25:46.602Z,72.16
2019-05-02T10:26:41.935Z,70.20
2019-05-02T10:27:46.075Z,69.81
2019-05-02T10:28:41.743Z,70.81
2019-05-02T10:29:41.876Z,69.75
2019-05-02T10:30:40.039Z,70.23
2019-05-02T10:31:42.068Z,71.29
2019-05-02T10:32:40.003Z,69.66
2019-05-02T10:33:41.934Z,69.56
2019-05-02T10:34:42.118Z,68.95
2019-05-02T10:35:41.490Z,68.76
2019-05-02T10:36:43.220Z,69.53
2019-05-02T10:37:39.912Z,69.43
2019-05-02T10:38:39.893Z,71.77
2019-05-02T10:39:39.879Z,68.95
2019-05-02T10:40:39.857Z,69.78
2019-05-02T10:41:41.852Z,70.64
2019-05-02T10:42:41.863Z,70.78
2019-05-02T10:43:39.803Z,70.01
2019-05-02T10:44:39.784Z,69.72
2019-05-02T10:45:39.765Z,70.62
2019-05-02T10:46:41.541Z,68.41
2019-05-02T10:47:39.729Z,69.02
2019-05-02T10:48:39.717Z,68.21
2019-05-02T10:49:39.693Z,66.64
2019-05-02T10:50:39.676Z,67.45
2019-05-02T10:51:41.803Z,67.99
2019-05-02T10:52:39.639Z,68.12
2019-05-02T10:53:39.622Z,68.98
2019-05-02T10:54:39.604Z,68.44
2019-05-02T10:55:39.585Z,67.25
2019-05-02T10:56:39.567Z,67.93
2019-05-02T10:57:39.548Z,67.54
2019-05-02T10:58:39.531Z,67.93
2019-05-02T10:59:39.512Z,68.12
2019-05-02T11:00:41.874Z,67.54
2019-05-02T11:01:41.626Z,68.18
2019-05-02T11:02:39.458Z,68.85
2019-05-02T11:03:43.765Z,69.08
2019-05-02T11:04:39.423Z,68.60
2019-05-02T11:05:39.405Z,66.91
2019-05-02T11:06:42.692Z,67.68
2019-05-02T11:07:39.369Z,67.86
2019-05-02T11:08:42.082Z,66.91
2019-05-02T11:09:39.333Z,66.23
2019-05-02T11:10:39.315Z,66.00
2019-05-02T11:11:39.319Z,67.07
2019-05-02T11:12:46.103Z,67.07
2019-05-02T11:13:39.261Z,67.07
2019-05-02T11:14:39.244Z,67.07
2019-05-02T11:15:39.227Z,67.93
2019-05-02T11:16:39.209Z,67.45
2019-05-02T11:17:39.190Z,68.12
2019-05-02T11:18:42.491Z,69.27
2019-05-02T11:19:39.156Z,68.70
2019-05-02T11:20:39.137Z,68.98
2019-05-02T11:21:46.726Z,68.06
2019-05-02T11:22:39.103Z,68.12
2019-05-02T11:23:39.176Z,67.96
2019-05-02T11:24:39.065Z,67.35
2019-05-02T11:25:39.046Z,68.06
2019-05-02T11:26:39.029Z,69.31
2019-05-02T11:27:39.010Z,68.35
2019-05-02T11:28:38.993Z,67.71
2019-05-02T11:29:38.974Z,67.58
2019-05-02T11:30:38.957Z,67.77
2019-05-02T11:31:38.940Z,66.81
2019-05-02T11:32:38.922Z,67.10
2019-05-02T11:33:38.902Z,66.23
2019-05-02T11:34:38.885Z,64.89
2019-05-02T11:35:41.861Z,65.72
2019-05-02T11:36:38.849Z,66.71
2019-05-02T11:37:38.831Z,65.91
2019-05-02T11:38:39.852Z,66.00
2019-05-02T11:39:48.550Z,65.17
2019-05-02T11:40:38.777Z,64.22
2019-05-02T11:41:38.758Z,64.79
2019-05-02T11:42:38.741Z,65.94
2019-05-02T11:43:42.383Z,66.07
2019-05-02T11:44:38.706Z,65.08
2019-05-02T11:45:38.686Z,65.37
2019-05-02T11:46:42.971Z,64.63
2019-05-02T11:47:38.651Z,65.20
2019-05-02T11:48:38.633Z,65.08
2019-05-02T11:49:38.615Z,64.98
2019-05-02T11:50:38.597Z,65.23
2019-05-02T11:51:38.580Z,66.20
2019-05-02T11:52:38.562Z,65.62
2019-05-02T11:53:38.546Z,65.81
2019-05-02T11:54:39.322Z,65.62
2019-05-02T11:55:41.290Z,65.72
2019-05-02T11:56:41.151Z,65.81
2019-05-02T11:57:38.473Z,67.45
2019-05-02T11:58:40.815Z,66.10
2019-05-02T11:59:38.438Z,65.91
2019-05-02T12:00:39.761Z,66.00
2019-05-02T12:01:39.811Z,66.52
2019-05-02T12:02:38.385Z,66.00
2019-05-02T12:03:38.373Z,66.49
2019-05-02T12:04:38.350Z,66.77
2019-05-02T12:05:39.377Z,67.25
2019-05-02T12:06:38.316Z,66.10
2019-05-02T12:07:38.299Z,66.14
2019-05-02T12:08:39.397Z,66.77
2019-05-02T12:09:38.260Z,67.16
2019-05-02T12:10:38.246Z,66.77
2019-05-02T12:11:38.226Z,67.03
2019-05-02T12:12:38.207Z,66.93
2019-05-02T12:13:38.189Z,67.22
2019-05-02T12:14:38.171Z,68.12
2019-05-02T12:15:38.153Z,68.02
2019-05-02T12:16:38.135Z,68.21
2019-05-02T12:17:38.116Z,69.05
2019-05-02T12:18:38.098Z,70.49
2019-05-02T12:19:38.079Z,73.66
2019-05-02T12:20:38.061Z,76.12
2019-05-02T12:21:39.288Z,77.04
2019-05-02T12:22:38.024Z,81.10
2019-05-02T12:23:38.006Z,80.68
2019-05-02T12:24:40.950Z,82.75
2019-05-02T12:25:37.966Z,83.00
2019-05-02T12:26:37.949Z,84.63
2019-05-02T12:27:39.433Z,84.39
2019-05-02T12:28:37.910Z,85.54
2019-05-02T12:29:37.891Z,86.50
2019-05-02T12:30:37.974Z,87.27
2019-05-02T12:31:37.852Z,86.41
2019-05-02T12:32:37.832Z,86.98
2019-05-02T12:33:37.812Z,87.17
2019-05-02T12:34:37.791Z,87.27
2019-05-02T12:35:37.772Z,87.55
2019-05-02T12:36:37.752Z,88.13
2019-05-02T12:37:37.734Z,88.32
2019-05-02T12:38:37.711Z,88.51
2019-05-02T12:39:37.691Z,87.94
2019-05-02T12:40:37.672Z,88.23
2019-05-02T12:41:37.650Z,88.32
2019-05-02T12:42:37.631Z,88.61
2019-05-02T12:43:37.609Z,88.61
2019-05-02T12:44:37.590Z,89.66
2019-05-02T12:45:37.570Z,90.33
2019-05-02T12:46:37.548Z,91.10
2019-05-02T12:47:37.527Z,91.67
2019-05-02T12:48:37.510Z,91.72
2019-05-02T12:49:37.486Z,92.15
2019-05-02T12:50:37.465Z,92.35
2019-05-02T12:51:37.444Z,91.92
2019-05-02T12:52:37.424Z,94.02